createdAt,value
2022-07-30T00:00:07.049Z,76.31
2022-07-30T00:02:10.089Z,76.29
2022-07-30T00:04:12.618Z,76.10
2022-07-30T00:06:15.117Z,76.27
2022-07-30T00:08:17.678Z,75.86
2022-07-30T00:10:20.830Z,75.30
2022-07-30T00:12:23.388Z,74.65
2022-07-30T00:14:26.645Z,74.42
2022-07-30T00:16:29.319Z,74.37
2022-07-30T00:18:31.952Z,74.66
2022-07-30T00:20:34.782Z,74.72
2022-07-30T00:22:37.675Z,74.38
2022-07-30T00:24:40.264Z,74.48
2022-07-30T00:26:42.902Z,74.64
2022-07-30T00:28:45.542Z,74.78
2022-07-30T00:30:48.175Z,74.96
2022-07-30T00:32:57.545Z,74.94
2022-07-30T00:35:00.111Z,75.33
2022-07-30T00:37:03.322Z,75.93
2022-07-30T00:39:06.496Z,76.24
2022-07-30T00:41:09.048Z,76.79
2022-07-30T00:43:16.281Z,76.50
2022-07-30T00:45:19.055Z,76.43
2022-07-30T00:47:21.718Z,76.30
2022-07-30T00:49:24.996Z,76.72
2022-07-30T00:51:27.588Z,77.30
2022-07-30T00:53:30.221Z,77.45
2022-07-30T00:55:33.509Z,77.67
2022-07-30T00:57:36.170Z,78.13
2022-07-30T00:59:38.833Z,78.57
2022-07-30T01:01:41.519Z,78.46
2022-07-30T01:03:44.029Z,78.31
2022-07-30T01:05:47.036Z,77.72
2022-07-30T01:07:49.636Z,77.53
2022-07-30T01:09:52.173Z,77.74
2022-07-30T01:11:55.507Z,77.67
2022-07-30T01:13:58.091Z,78.01
2022-07-30T01:16:00.819Z,78.60
2022-07-30T01:18:07.270Z,78.52
2022-07-30T01:20:18.669Z,78.68
2022-07-30T01:22:30.503Z,78.97
2022-07-30T01:24:38.838Z,79.21
2022-07-30T01:26:41.542Z,79.64
2022-07-30T01:28:49.157Z,79.83
2022-07-30T01:30:53.168Z,79.75
2022-07-30T01:32:56.623Z,79.70
2022-07-30T01:34:59.863Z,79.77
2022-07-30T01:37:04.225Z,80.24
2022-07-30T01:39:07.046Z,80.03
2022-07-30T01:41:09.870Z,80.09
2022-07-30T01:43:13.104Z,79.92
2022-07-30T01:45:16.135Z,79.80
2022-07-30T01:47:20.081Z,80.11
2022-07-30T01:49:24.375Z,80.22
2022-07-30T01:51:33.338Z,80.44
2022-07-30T01:53:41.841Z,80.64
2022-07-30T01:55:44.730Z,80.68
2022-07-30T01:57:49.210Z,80.61
2022-07-30T01:59:55.119Z,81.02
2022-07-30T02:01:57.405Z,81.27
2022-07-30T02:04:00.706Z,82.00
2022-07-30T02:06:09.494Z,81.86
2022-07-30T02:08:24.637Z,81.77
2022-07-30T02:10:26.864Z,82.22
2022-07-30T02:12:30.869Z,82.53
2022-07-30T02:14:55.401Z,82.51
2022-07-30T02:16:59.624Z,83.03
2022-07-30T02:19:14.376Z,82.94
2022-07-30T02:21:18.447Z,82.64
2022-07-30T02:23:21.772Z,83.04
2022-07-30T02:25:24.194Z,83.18
2022-07-30T02:27:28.771Z,83.10
2022-07-30T02:29:34.910Z,82.73
2022-07-30T02:31:38.723Z,82.85
2022-07-30T02:33:48.762Z,82.58
2022-07-30T02:35:52.490Z,82.28
2022-07-30T02:37:54.943Z,82.48
2022-07-30T02:39:57.568Z,82.29
2022-07-30T02:41:59.862Z,82.04
2022-07-30T02:44:03.110Z,81.88
2022-07-30T02:46:06.323Z,81.57
2022-07-30T02:48:10.537Z,80.17
2022-07-30T02:50:13.011Z,79.85
2022-07-30T02:52:16.199Z,78.53
2022-07-30T02:54:19.620Z,77.96
2022-07-30T02:56:22.950Z,78.68
2022-07-30T02:58:26.125Z,77.45
2022-07-30T03:00:30.660Z,75.20
2022-07-30T03:02:33.896Z,76.42
2022-07-30T03:04:36.634Z,76.01
2022-07-30T03:06:40.535Z,75.88
2022-07-30T03:08:44.464Z,75.52
2022-07-30T03:10:47.582Z,75.81
2022-07-30T03:12:50.569Z,74.69
2022-07-30T03:14:53.086Z,75.01
2022-07-30T03:16:57.133Z,74.99
2022-07-30T03:19:02.596Z,74.06
2022-07-30T03:21:08.377Z,74.45
2022-07-30T03:23:11.709Z,74.44
2022-07-30T03:25:16.569Z,74.66
2022-07-30T03:27:19.503Z,74.61
2022-07-30T03:29:22.642Z,74.58
2022-07-30T03:31:25.066Z,74.55
2022-07-30T03:33:38.566Z,74.32
2022-07-30T03:35:42.927Z,73.47
2022-07-30T03:37:46.471Z,73.47
2022-07-30T03:39:48.838Z,73.54
2022-07-30T03:41:51.606Z,72.38
2022-07-30T03:43:53.999Z,72.68
2022-07-30T03:45:57.080Z,72.60
2022-07-30T03:47:59.558Z,72.00
2022-07-30T03:50:01.943Z,72.73
2022-07-30T03:52:06.079Z,72.66
2022-07-30T03:54:13.522Z,71.91
2022-07-30T03:56:16.234Z,72.30
2022-07-30T03:58:19.001Z,71.69
2022-07-30T04:00:21.360Z,72.32
2022-07-30T04:02:23.726Z,71.86
2022-07-30T04:04:26.306Z,71.95
2022-07-30T04:06:28.604Z,72.31
2022-07-30T04:08:31.034Z,71.03
2022-07-30T04:10:33.393Z,71.44
2022-07-30T04:12:35.816Z,70.57
2022-07-30T04:14:42.351Z,70.71
2022-07-30T04:16:47.881Z,69.87
2022-07-30T04:18:55.045Z,69.34
2022-07-30T04:20:58.373Z,69.30
2022-07-30T04:23:01.271Z,69.88
2022-07-30T04:25:05.184Z,70.24
2022-07-30T04:27:07.523Z,69.90
2022-07-30T04:29:13.841Z,69.55
2022-07-30T04:31:20.726Z,69.48
2022-07-30T04:33:23.093Z,69.62
2022-07-30T04:35:50.787Z,69.85
2022-07-30T04:37:51.596Z,69.42
2022-07-30T04:39:55.148Z,70.14
2022-07-30T04:41:57.422Z,69.88
2022-07-30T04:43:59.710Z,69.59
2022-07-30T04:46:02.210Z,68.10
2022-07-30T04:48:04.581Z,68.89
2022-07-30T04:50:07.717Z,68.77
2022-07-30T04:52:10.828Z,68.55
2022-07-30T04:54:16.144Z,69.61
2022-07-30T04:56:19.727Z,69.54
2022-07-30T04:58:22.466Z,69.58
2022-07-30T05:00:24.782Z,69.16
2022-07-30T05:02:29.574Z,69.00
2022-07-30T05:04:33.385Z,68.91
2022-07-30T05:06:36.827Z,69.45
2022-07-30T05:08:40.044Z,67.39
2022-07-30T05:10:43.318Z,68.09
2022-07-30T05:12:45.594Z,68.23
2022-07-30T05:14:48.385Z,68.35
2022-07-30T05:16:50.968Z,68.96
2022-07-30T05:18:53.242Z,68.86
2022-07-30T05:20:55.518Z,68.88
2022-07-30T05:22:57.829Z,68.19
2022-07-30T05:25:00.240Z,67.92
2022-07-30T05:27:02.926Z,67.88
2022-07-30T05:29:07.165Z,67.60
2022-07-30T05:31:10.457Z,66.53
2022-07-30T05:33:15.837Z,67.04
2022-07-30T05:35:18.358Z,67.27
2022-07-30T05:37:20.683Z,67.50
2022-07-30T05:39:23.031Z,66.94
2022-07-30T05:41:32.822Z,65.53
2022-07-30T05:43:35.498Z,66.23
2022-07-30T05:45:37.842Z,66.03
2022-07-30T05:47:40.127Z,64.77
2022-07-30T05:49:42.554Z,65.73
2022-07-30T05:51:50.483Z,65.60
2022-07-30T05:53:52.856Z,66.15
2022-07-30T05:55:55.114Z,65.76
2022-07-30T05:57:57.389Z,66.14
2022-07-30T06:00:00.988Z,65.45
2022-07-30T06:02:03.871Z,65.61
2022-07-30T06:04:06.274Z,65.85
2022-07-30T06:06:08.573Z,63.58
2022-07-30T06:08:11.134Z,64.27
2022-07-30T06:10:13.532Z,63.45
2022-07-30T06:12:15.919Z,63.49
2022-07-30T06:14:18.266Z,62.75
2022-07-30T06:16:20.603Z,63.41
2022-07-30T06:18:23.296Z,63.99
2022-07-30T06:20:25.828Z,63.85
2022-07-30T06:22:28.143Z,62.58
2022-07-30T06:24:30.405Z,63.50
2022-07-30T06:26:32.667Z,62.81
2022-07-30T06:28:39.160Z,63.06
2022-07-30T06:30:41.997Z,64.05
2022-07-30T06:32:45.818Z,63.57
2022-07-30T06:34:59.713Z,62.44
2022-07-30T06:37:06.107Z,62.14
2022-07-30T06:39:08.536Z,62.31
2022-07-30T06:41:11.183Z,61.99
2022-07-30T06:43:13.528Z,62.33
2022-07-30T06:45:15.815Z,61.85
2022-07-30T06:47:26.343Z,61.31
2022-07-30T06:49:31.300Z,61.21
2022-07-30T06:51:33.688Z,61.75
2022-07-30T06:53:42.502Z,61.68
2022-07-30T06:55:45.279Z,58.67
2022-07-30T06:57:47.500Z,57.30
2022-07-30T06:59:56.089Z,57.55
2022-07-30T07:01:59.883Z,57.88
2022-07-30T07:04:03.818Z,57.26
2022-07-30T07:06:06.279Z,57.02
2022-07-30T07:08:08.734Z,58.04
2022-07-30T07:10:11.221Z,56.28
2022-07-30T07:12:13.636Z,55.96
2022-07-30T07:14:15.949Z,56.14
2022-07-30T07:16:21.949Z,55.98
2022-07-30T07:18:24.325Z,54.14
2022-07-30T07:20:26.597Z,53.93
2022-07-30T07:22:29.302Z,54.02
2022-07-30T07:24:31.660Z,53.34
2022-07-30T07:26:33.999Z,53.36
2022-07-30T07:28:36.561Z,52.43
2022-07-30T07:30:39.064Z,50.71
2022-07-30T07:32:41.399Z,50.31
2022-07-30T07:34:43.698Z,50.52
2022-07-30T07:36:45.970Z,51.50
2022-07-30T07:38:48.333Z,51.93
2022-07-30T07:40:50.786Z,52.63
2022-07-30T07:42:53.333Z,52.07
2022-07-30T07:44:55.693Z,52.67
2022-07-30T07:46:58.044Z,50.65
2022-07-30T07:49:00.809Z,48.84
2022-07-30T07:51:03.593Z,49.88
2022-07-30T07:53:13.178Z,50.08
2022-07-30T07:55:15.588Z,49.67
2022-07-30T07:57:18.535Z,50.94
2022-07-30T07:59:23.190Z,50.18
2022-07-30T08:01:34.632Z,51.58
2022-07-30T08:03:36.937Z,49.70
2022-07-30T08:06:01.039Z,49.35
2022-07-30T08:08:01.611Z,49.17
2022-07-30T08:10:04.299Z,49.68
2022-07-30T08:12:06.682Z,50.93
2022-07-30T08:14:08.939Z,51.04
2022-07-30T08:16:12.607Z,50.21
2022-07-30T08:18:15.169Z,50.55
2022-07-30T08:20:17.514Z,51.36
2022-07-30T08:22:19.890Z,51.46
2022-07-30T08:24:24.141Z,52.43
2022-07-30T08:26:26.465Z,53.23
2022-07-30T08:28:35.912Z,53.71
2022-07-30T08:30:38.948Z,52.88
2022-07-30T08:32:41.267Z,52.94
2022-07-30T08:34:43.855Z,49.72
2022-07-30T08:36:46.147Z,51.94
2022-07-30T08:38:48.523Z,51.50
2022-07-30T08:40:51.062Z,52.04
2022-07-30T08:42:53.926Z,51.41
2022-07-30T08:44:56.434Z,50.49
2022-07-30T08:47:00.064Z,51.06
2022-07-30T08:49:06.461Z,50.06
2022-07-30T08:51:11.937Z,51.08
2022-07-30T08:53:14.520Z,50.19
2022-07-30T08:55:17.031Z,50.98
2022-07-30T08:57:19.616Z,51.19
2022-07-30T08:59:23.922Z,50.89
2022-07-30T09:01:26.322Z,51.94
2022-07-30T09:03:28.913Z,52.31
2022-07-30T09:05:31.392Z,52.73
2022-07-30T09:07:34.468Z,52.65
2022-07-30T09:09:36.759Z,51.07
2022-07-30T09:11:39.139Z,49.66
2022-07-30T09:13:42.571Z,49.34
2022-07-30T09:15:44.865Z,49.67
2022-07-30T09:17:48.344Z,49.81
2022-07-30T09:20:04.371Z,47.95
2022-07-30T09:22:07.109Z,46.56
2022-07-30T09:24:11.551Z,46.93
2022-07-30T09:26:14.195Z,44.77
2022-07-30T09:28:17.161Z,46.52
2022-07-30T09:30:19.537Z,45.83
2022-07-30T09:32:21.828Z,43.85
2022-07-30T09:34:25.210Z,44.71
2022-07-30T09:36:31.455Z,44.09
2022-07-30T09:38:42.800Z,44.58
2022-07-30T09:40:50.632Z,44.03
2022-07-30T09:43:04.491Z,43.66
2022-07-30T09:45:07.568Z,43.56
2022-07-30T09:47:09.889Z,43.44
2022-07-30T09:49:22.991Z,42.51
2022-07-30T09:51:56.745Z,41.74
2022-07-30T09:54:00.101Z,42.54
2022-07-30T09:56:22.856Z,42.76
2022-07-30T09:58:40.385Z,42.95
2022-07-30T10:00:48.785Z,45.74
2022-07-30T10:02:52.012Z,45.91
2022-07-30T10:04:54.520Z,45.16
2022-07-30T10:06:57.606Z,43.94
2022-07-30T10:08:59.890Z,45.19
2022-07-30T10:11:05.168Z,44.11
2022-07-30T10:13:15.987Z,45.94
2022-07-30T10:15:21.848Z,46.10
2022-07-30T10:17:25.251Z,47.27
2022-07-30T10:19:40.048Z,44.80
2022-07-30T10:21:44.479Z,44.45
2022-07-30T10:23:49.254Z,44.28
2022-07-30T10:25:56.266Z,45.08
2022-07-30T10:28:00.258Z,45.02
2022-07-30T10:30:05.890Z,45.56
2022-07-30T10:32:09.514Z,46.61
2022-07-30T10:34:15.527Z,46.76
2022-07-30T10:36:18.058Z,46.34
2022-07-30T10:38:22.283Z,45.91
2022-07-30T10:40:31.042Z,46.52
2022-07-30T10:42:33.362Z,46.44
2022-07-30T10:44:35.643Z,47.01
2022-07-30T10:46:49.806Z,47.74
2022-07-30T10:48:52.210Z,47.26
2022-07-30T10:50:55.673Z,47.84
2022-07-30T10:53:01.441Z,47.72
2022-07-30T10:55:12.490Z,48.11
2022-07-30T10:57:32.108Z,47.42
2022-07-30T10:59:59.861Z,46.17
2022-07-30T11:02:09.413Z,45.42
2022-07-30T11:04:22.367Z,43.51
2022-07-30T11:06:28.467Z,43.86
2022-07-30T11:08:42.647Z,44.74
2022-07-30T11:10:45.549Z,44.45
2022-07-30T11:12:52.763Z,45.31
2022-07-30T11:14:55.705Z,43.94
2022-07-30T11:16:59.027Z,43.72
2022-07-30T11:19:55.086Z,43.28
2022-07-30T11:21:26.568Z,43.07
2022-07-30T11:23:39.033Z,41.23
2022-07-30T11:25:50.982Z,39.86
2022-07-30T11:27:54.642Z,39.79
2022-07-30T11:29:57.323Z,40.33
2022-07-30T11:32:19.563Z,39.69
2022-07-30T11:34:25.678Z,40.09
2022-07-30T11:36:29.516Z,38.59
2022-07-30T11:38:50.781Z,39.18
2022-07-30T11:40:54.948Z,40.19
2022-07-30T11:43:35.022Z,38.51
2022-07-30T11:45:39.381Z,38.77
2022-07-30T11:47:47.753Z,37.92
2022-07-30T11:49:50.119Z,38.74
2022-07-30T11:51:52.535Z,39.02
2022-07-30T11:54:04.884Z,37.62
2022-07-30T11:56:07.419Z,39.25
2022-07-30T11:58:10.911Z,37.09
2022-07-30T12:00:13.464Z,35.42
2022-07-30T12:02:15.825Z,36.62
2022-07-30T12:04:18.205Z,36.59
2022-07-30T12:06:20.900Z,34.73
2022-07-30T12:08:32.795Z,38.15
2022-07-30T12:10:41.466Z,38.31
2022-07-30T12:12:44.271Z,39.02
2022-07-30T12:14:46.568Z,37.84
2022-07-30T12:16:50.207Z,40.02
2022-07-30T12:18:53.875Z,41.05
2022-07-30T12:21:02.992Z,39.98
2022-07-30T12:23:15.066Z,41.32
2022-07-30T12:25:24.174Z,42.00
2022-07-30T12:27:26.810Z,41.43
2022-07-30T12:29:29.239Z,43.34
2022-07-30T12:31:33.860Z,43.98
2022-07-30T12:33:42.132Z,44.83
2022-07-30T12:35:49.511Z,45.74
2022-07-30T12:38:10.414Z,45.74
2022-07-30T12:40:15.095Z,45.78
2022-07-30T12:42:19.089Z,46.14
2022-07-30T12:44:36.830Z,45.12
2022-07-30T12:46:41.217Z,45.06
2022-07-30T12:48:50.693Z,45.77
2022-07-30T12:51:04.309Z,45.04
2022-07-30T12:53:09.504Z,45.96
2022-07-30T12:55:12.839Z,45.20
2022-07-30T12:57:15.176Z,45.00
2022-07-30T12:59:22.069Z,44.62
2022-07-30T13:01:44.023Z,46.02
2022-07-30T13:03:46.771Z,46.49
2022-07-30T13:05:50.444Z,47.35
2022-07-30T13:08:00.329Z,46.80
2022-07-30T13:10:09.099Z,46.05
2022-07-30T13:12:12.502Z,46.85
2022-07-30T13:14:17.163Z,46.33
2022-07-30T13:16:20.103Z,46.79
2022-07-30T13:18:22.402Z,47.41
2022-07-30T13:20:24.835Z,48.12
2022-07-30T13:22:27.218Z,48.49
2022-07-30T13:24:29.694Z,48.45
2022-07-30T13:26:32.324Z,49.41
2022-07-30T13:28:35.492Z,49.77
2022-07-30T13:30:37.965Z,49.20
2022-07-30T13:32:40.532Z,47.54
2022-07-30T13:34:43.624Z,48.05
2022-07-30T13:36:46.099Z,49.92
2022-07-30T13:38:52.382Z,50.38
2022-07-30T13:40:59.054Z,50.51
2022-07-30T13:43:04.688Z,51.31
2022-07-30T13:45:07.575Z,50.02
2022-07-30T13:47:10.034Z,51.23
2022-07-30T13:49:13.333Z,51.87
2022-07-30T13:51:16.778Z,50.57
2022-07-30T13:53:19.062Z,50.52
2022-07-30T13:55:21.419Z,50.55
2022-07-30T13:57:24.025Z,55.21
2022-07-30T13:59:26.697Z,58.60
2022-07-30T14:01:29.533Z,60.46
2022-07-30T14:03:31.928Z,61.04
2022-07-30T14:05:36.136Z,62.03
2022-07-30T14:07:44.814Z,63.92
2022-07-30T14:09:51.408Z,64.74
2022-07-30T14:11:56.397Z,65.33
2022-07-30T14:13:58.663Z,66.71
2022-07-30T14:16:00.946Z,68.55
2022-07-30T14:18:06.176Z,69.95
2022-07-30T14:20:08.700Z,69.75
2022-07-30T14:22:11.085Z,70.82
2022-07-30T14:24:16.451Z,72.14
2022-07-30T14:26:18.800Z,72.11
2022-07-30T14:28:21.109Z,73.48
2022-07-30T14:30:24.804Z,72.54
2022-07-30T14:32:32.362Z,72.78
2022-07-30T14:34:35.270Z,73.34
2022-07-30T14:36:37.794Z,74.95
2022-07-30T14:38:40.123Z,75.32
2022-07-30T14:40:42.447Z,75.40
2022-07-30T14:42:44.751Z,74.87
2022-07-30T14:44:48.482Z,75.13
2022-07-30T14:46:52.171Z,75.13
2022-07-30T14:48:55.172Z,74.91
2022-07-30T14:51:14.337Z,74.48
2022-07-30T14:53:22.385Z,73.67
2022-07-30T14:55:25.382Z,73.25
2022-07-30T14:57:27.657Z,73.26
2022-07-30T15:00:09.793Z,72.12
2022-07-30T15:02:13.616Z,72.46
2022-07-30T15:04:16.438Z,72.18
2022-07-30T15:06:18.983Z,72.96
2022-07-30T15:08:21.861Z,72.49
2022-07-30T15:10:24.838Z,71.99
2022-07-30T15:12:27.915Z,72.11
2022-07-30T15:14:30.784Z,71.75
2022-07-30T15:16:33.561Z,71.29
2022-07-30T15:18:36.072Z,70.67
2022-07-30T15:20:38.644Z,70.72
2022-07-30T15:22:41.360Z,70.44
2022-07-30T15:24:43.890Z,70.42
2022-07-30T15:26:47.147Z,70.92
2022-07-30T15:28:49.812Z,71.34
2022-07-30T15:30:52.352Z,71.12
2022-07-30T15:32:54.888Z,71.09
2022-07-30T15:34:58.968Z,70.66
2022-07-30T15:37:02.849Z,69.95
2022-07-30T15:39:06.768Z,70.07
2022-07-30T15:41:13.440Z,69.87
2022-07-30T15:43:16.554Z,69.47
2022-07-30T15:45:20.348Z,68.96
2022-07-30T15:47:23.272Z,68.71
2022-07-30T15:49:26.968Z,69.43
2022-07-30T15:51:31.659Z,68.87
2022-07-30T15:53:34.255Z,69.08
2022-07-30T15:55:47.053Z,69.36
2022-07-30T15:57:50.437Z,69.94
2022-07-30T15:59:53.614Z,71.07
2022-07-30T16:01:56.491Z,70.84
2022-07-30T16:03:59.051Z,70.70
2022-07-30T16:06:01.697Z,71.59
2022-07-30T16:08:04.355Z,73.00
2022-07-30T16:10:07.330Z,74.28
2022-07-30T16:12:09.961Z,74.03
2022-07-30T16:14:12.622Z,74.21
2022-07-30T16:16:15.794Z,73.87
2022-07-30T16:18:18.375Z,73.46
2022-07-30T16:20:21.139Z,73.64
2022-07-30T16:22:24.323Z,73.50
2022-07-30T16:24:27.091Z,73.19
2022-07-30T16:26:30.923Z,72.41
2022-07-30T16:28:33.472Z,72.28
2022-07-30T16:30:50.718Z,72.35
2022-07-30T16:33:00.175Z,72.53
2022-07-30T16:35:02.805Z,72.52
2022-07-30T16:37:06.507Z,72.53
2022-07-30T16:39:09.435Z,72.99
2022-07-30T16:41:13.573Z,73.11
2022-07-30T16:43:19.543Z,73.15
2022-07-30T16:45:22.963Z,73.69
2022-07-30T16:47:25.559Z,73.32
2022-07-30T16:49:28.797Z,73.42
2022-07-30T16:51:31.903Z,73.82
2022-07-30T16:53:34.617Z,73.90
2022-07-30T16:55:37.251Z,73.86
2022-07-30T16:57:39.830Z,73.91
2022-07-30T16:59:43.745Z,72.50
2022-07-30T17:01:47.529Z,72.68
2022-07-30T17:03:50.123Z,71.88
2022-07-30T17:05:53.739Z,71.39
2022-07-30T17:07:56.643Z,71.85
2022-07-30T17:09:59.255Z,72.22
2022-07-30T17:12:02.067Z,72.82
2022-07-30T17:14:06.518Z,74.16
2022-07-30T17:16:09.529Z,75.43
2022-07-30T17:18:12.510Z,76.35
2022-07-30T17:20:15.646Z,76.92
2022-07-30T17:22:18.408Z,77.29
2022-07-30T17:24:21.252Z,77.24
2022-07-30T17:26:23.903Z,76.69
2022-07-30T17:28:27.005Z,73.88
2022-07-30T17:30:30.533Z,72.35
2022-07-30T17:32:33.319Z,71.66
2022-07-30T17:34:35.932Z,71.48
2022-07-30T17:36:39.535Z,72.34
2022-07-30T17:38:42.307Z,72.53
2022-07-30T17:40:44.987Z,74.05
2022-07-30T17:42:47.728Z,75.48
2022-07-30T17:44:50.391Z,76.26
2022-07-30T17:46:53.627Z,76.06
2022-07-30T17:48:56.262Z,75.40
2022-07-30T17:50:58.892Z,75.00
2022-07-30T17:53:06.196Z,75.21
2022-07-30T17:55:11.406Z,75.82
2022-07-30T17:57:15.453Z,75.82
2022-07-30T17:59:18.141Z,76.85
2022-07-30T18:01:20.920Z,77.28
2022-07-30T18:03:23.615Z,78.03
2022-07-30T18:05:27.611Z,79.79
2022-07-30T18:07:30.453Z,80.50
2022-07-30T18:09:39.634Z,81.34
2022-07-30T18:11:43.183Z,81.93
2022-07-30T18:13:45.882Z,82.57
2022-07-30T18:15:48.990Z,83.64
2022-07-30T18:17:51.665Z,84.62
2022-07-30T18:19:54.346Z,85.48
2022-07-30T18:21:57.524Z,86.41
2022-07-30T18:24:00.222Z,86.52
2022-07-30T18:26:03.047Z,86.92
2022-07-30T18:28:06.004Z,87.11
2022-07-30T18:30:09.162Z,87.16
2022-07-30T18:32:11.860Z,87.06
2022-07-30T18:34:14.632Z,86.22
2022-07-30T18:36:17.227Z,85.88
2022-07-30T18:38:20.062Z,85.52
2022-07-30T18:40:24.233Z,84.67
2022-07-30T18:42:27.184Z,83.47
2022-07-30T18:44:29.833Z,82.79
2022-07-30T18:46:32.457Z,82.12
2022-07-30T18:48:35.959Z,81.16
2022-07-30T18:50:38.762Z,80.50
2022-07-30T18:52:41.753Z,80.50
2022-07-30T18:54:44.318Z,80.38
2022-07-30T18:56:46.978Z,79.75
2022-07-30T18:58:49.560Z,79.42
2022-07-30T19:00:52.182Z,79.35
2022-07-30T19:02:54.893Z,79.26
2022-07-30T19:04:58.606Z,78.25
2022-07-30T19:07:01.350Z,77.16
2022-07-30T19:11:07.341Z,76.53
2022-07-30T19:13:10.157Z,75.67
2022-07-30T19:15:14.274Z,75.66
2022-07-30T19:17:16.907Z,75.91
2022-07-30T19:19:20.091Z,76.44
2022-07-30T19:21:22.963Z,76.91
2022-07-30T19:23:25.536Z,78.27
2022-07-30T19:25:29.657Z,78.82
2022-07-30T19:27:32.267Z,79.13
2022-07-30T19:29:34.818Z,79.62
2022-07-30T19:31:37.506Z,80.11
2022-07-30T19:33:41.419Z,81.27
2022-07-30T19:35:44.099Z,82.00
2022-07-30T19:37:47.132Z,82.98
2022-07-30T19:40:05.355Z,83.63
2022-07-30T19:42:09.320Z,84.13
2022-07-30T19:44:18.563Z,84.82
2022-07-30T19:46:21.642Z,85.39
2022-07-30T19:48:29.262Z,86.25
2022-07-30T19:50:35.839Z,86.61
2022-07-30T19:52:40.571Z,86.53
2022-07-30T19:54:54.191Z,86.75
2022-07-30T19:56:56.734Z,87.10
2022-07-30T19:59:00.594Z,87.37
2022-07-30T20:01:17.331Z,87.90
2022-07-30T20:03:25.561Z,87.97
2022-07-30T20:05:31.950Z,88.72
2022-07-30T20:07:54.476Z,89.37
2022-07-30T20:09:58.440Z,90.08
2022-07-30T20:12:02.378Z,90.72
2022-07-30T20:14:05.602Z,90.71
2022-07-30T20:16:12.231Z,90.98
2022-07-30T20:18:14.913Z,91.10
2022-07-30T20:20:17.577Z,91.51
2022-07-30T20:22:29.204Z,91.77
2022-07-30T20:24:32.299Z,92.11
2022-07-30T20:26:35.002Z,92.66
2022-07-30T20:28:37.556Z,93.13
2022-07-30T20:30:40.304Z,93.41
2022-07-30T20:32:46.909Z,93.29
2022-07-30T20:34:49.669Z,93.68
2022-07-30T20:36:52.242Z,93.41
2022-07-30T20:38:56.615Z,93.78
2022-07-30T20:40:59.142Z,94.15
2022-07-30T20:43:06.171Z,95.12
2022-07-30T20:45:11.004Z,95.52
2022-07-30T20:47:37.592Z,95.90
2022-07-30T20:49:41.243Z,96.58
2022-07-30T20:51:45.029Z,97.10
2022-07-30T20:53:52.932Z,97.74
2022-07-30T20:55:55.492Z,98.20
2022-07-30T20:58:08.903Z,98.75
2022-07-30T21:00:20.202Z,99.27
2022-07-30T21:04:46.502Z,99.91
2022-07-30T21:06:50.479Z,99.81
2022-07-30T21:08:53.188Z,99.81
2022-07-30T21:10:57.858Z,100.00
2022-07-30T21:13:07.663Z,100.00
2022-07-30T21:15:15.772Z,100.00
2022-07-30T21:17:26.433Z,100.00
2022-07-30T21:19:31.024Z,100.00
2022-07-30T21:23:59.041Z,100.00
2022-07-30T21:26:07.097Z,100.00
2022-07-30T21:28:18.457Z,100.00
2022-07-30T21:30:31.286Z,100.00
2022-07-30T21:32:35.427Z,100.00
2022-07-30T21:34:40.435Z,100.00
2022-07-30T21:36:44.882Z,100.00
2022-07-30T21:38:47.526Z,100.00
2022-07-30T21:40:50.393Z,100.00
2022-07-30T21:42:52.934Z,100.00
2022-07-30T21:44:55.525Z,100.00
2022-07-30T21:46:58.162Z,100.00
2022-07-30T21:49:00.826Z,100.00
2022-07-30T21:51:03.934Z,100.00
2022-07-30T21:53:06.497Z,100.00
2022-07-30T21:55:13.221Z,100.00
2022-07-30T21:57:26.447Z,100.00
2022-07-30T21:59:29.467Z,100.00
2022-07-30T22:01:33.072Z,100.00
2022-07-30T22:04:03.680Z,100.00
2022-07-30T22:06:04.385Z,100.00
2022-07-30T22:08:08.917Z,100.00
2022-07-30T22:10:13.043Z,100.00
2022-07-30T22:12:25.917Z,100.00
2022-07-30T22:14:31.726Z,100.00
2022-07-30T22:16:34.458Z,100.00
2022-07-30T22:18:37.127Z,100.00
2022-07-30T22:20:41.824Z,100.00
2022-07-30T22:22:44.778Z,100.00
2022-07-30T22:24:48.100Z,100.00
2022-07-30T22:26:51.010Z,100.00
2022-07-30T22:28:54.282Z,100.00
2022-07-30T22:30:57.240Z,100.00
2022-07-30T22:33:20.139Z,100.00
2022-07-30T22:35:32.352Z,100.00
2022-07-30T22:37:36.744Z,100.00
2022-07-30T22:39:50.574Z,100.00
2022-07-30T22:41:54.852Z,100.00
2022-07-30T22:43:57.720Z,100.00
2022-07-30T22:46:01.071Z,100.00
2022-07-30T22:48:10.282Z,100.00
2022-07-30T22:50:14.894Z,100.00
2022-07-30T22:52:21.968Z,100.00
2022-07-30T22:54:29.247Z,100.00
2022-07-30T22:56:32.429Z,100.00
2022-07-30T22:58:35.040Z,100.00
2022-07-30T23:00:37.620Z,100.00
2022-07-30T23:02:43.016Z,100.00
2022-07-30T23:04:45.622Z,100.00
2022-07-30T23:06:48.601Z,100.00
2022-07-30T23:08:51.167Z,100.00
2022-07-30T23:10:53.987Z,100.00
2022-07-30T23:12:26.729Z,99.58
2022-07-30T23:12:27.128Z,100.00
2022-07-30T23:12:56.921Z,100.00
2022-07-30T23:14:59.725Z,100.00
2022-07-30T23:17:02.490Z,100.00
2022-07-30T23:19:06.783Z,100.00
2022-07-30T23:21:10.115Z,100.00
2022-07-30T23:23:12.704Z,100.00
2022-07-30T23:25:15.790Z,100.00
2022-07-30T23:27:18.459Z,100.00
2022-07-30T23:29:21.079Z,100.00
2022-07-30T23:31:26.790Z,100.00
2022-07-30T23:33:30.785Z,100.00
2022-07-30T23:35:33.360Z,100.00
2022-07-30T23:37:47.619Z,100.00
2022-07-30T23:39:51.561Z,100.00
2022-07-30T23:41:54.247Z,100.00
2022-07-30T23:43:56.838Z,100.00
2022-07-30T23:45:59.554Z,100.00
2022-07-30T23:48:03.433Z,100.00
2022-07-30T23:50:06.817Z,100.00
2022-07-30T23:52:09.858Z,100.00
2022-07-30T23:54:12.432Z,100.00
2022-07-30T23:56:15.981Z,100.00
2022-07-30T23:58:19.116Z,100.00
